sensor_id;sensor_type;location;lat;lon;timestamp;P1;durP1;ratioP1;P2;durP2;ratioP2
8550;SDS011;4313;42.000;21.380;2023-04-24T00:01:26;14.32;;;11.02;;
8550;SDS011;4313;42.000;21.380;2023-04-24T00:03:55;12.95;;;11.25;;
8550;SDS011;4313;42.000;21.380;2023-04-24T00:06:24;12.90;;;11.43;;
8550;SDS011;4313;42.000;21.380;2023-04-24T00:08:58;14.65;;;11.60;;
8550;SDS011;4313;42.000;21.380;2023-04-24T00:11:26;13.07;;;11.23;;
8550;SDS011;4313;42.000;21.380;2023-04-24T00:13:53;13.10;;;11.80;;
8550;SDS011;4313;42.000;21.380;2023-04-24T00:16:20;12.97;;;11.50;;
8550;SDS011;4313;42.000;21.380;2023-04-24T00:18:48;12.57;;;11.25;;
8550;SDS011;4313;42.000;21.380;2023-04-24T00:21:16;14.80;;;11.85;;
8550;SDS011;4313;42.000;21.380;2023-04-24T00:23:43;13.07;;;11.77;;
8550;SDS011;4313;42.000;21.380;2023-04-24T00:26:11;13.73;;;10.55;;
8550;SDS011;4313;42.000;21.380;2023-04-24T00:28:38;11.90;;;10.57;;
8550;SDS011;4313;42.000;21.380;2023-04-24T00:31:05;11.65;;;10.45;;
8550;SDS011;4313;42.000;21.380;2023-04-24T00:33:32;13.00;;;10.70;;
8550;SDS011;4313;42.000;21.380;2023-04-24T00:36:00;11.93;;;10.45;;
8550;SDS011;4313;42.000;21.380;2023-04-24T00:38:28;11.53;;;10.30;;
8550;SDS011;4313;42.000;21.380;2023-04-24T00:40:55;12.97;;;11.00;;
8550;SDS011;4313;42.000;21.380;2023-04-24T00:43:22;12.43;;;10.03;;
8550;SDS011;4313;42.000;21.380;2023-04-24T00:45:50;12.07;;;10.83;;
8550;SDS011;4313;42.000;21.380;2023-04-24T00:48:17;11.90;;;10.73;;
8550;SDS011;4313;42.000;21.380;2023-04-24T00:50:45;10.60;;;9.50;;
8550;SDS011;4313;42.000;21.380;2023-04-24T00:53:14;10.83;;;9.83;;
8550;SDS011;4313;42.000;21.380;2023-04-24T00:55:43;10.80;;;9.73;;
8550;SDS011;4313;42.000;21.380;2023-04-24T00:58:10;11.40;;;10.30;;
8550;SDS011;4313;42.000;21.380;2023-04-24T01:00:40;12.93;;;10.02;;
8550;SDS011;4313;42.000;21.380;2023-04-24T01:03:07;13.67;;;10.73;;
8550;SDS011;4313;42.000;21.380;2023-04-24T01:05:36;14.03;;;10.60;;
8550;SDS011;4313;42.000;21.380;2023-04-24T01:08:03;11.43;;;10.33;;
8550;SDS011;4313;42.000;21.380;2023-04-24T01:10:30;12.03;;;10.40;;
8550;SDS011;4313;42.000;21.380;2023-04-24T01:13:01;12.10;;;10.67;;
8550;SDS011;4313;42.000;21.380;2023-04-24T01:15:28;12.93;;;11.30;;
8550;SDS011;4313;42.000;21.380;2023-04-24T01:17:56;12.10;;;10.80;;
8550;SDS011;4313;42.000;21.380;2023-04-24T01:20:23;13.07;;;11.13;;
8550;SDS011;4313;42.000;21.380;2023-04-24T01:22:53;11.93;;;10.63;;
8550;SDS011;4313;42.000;21.380;2023-04-24T01:25:22;12.70;;;11.50;;
8550;SDS011;4313;42.000;21.380;2023-04-24T01:27:50;13.00;;;11.10;;
8550;SDS011;4313;42.000;21.380;2023-04-24T01:30:17;11.13;;;10.03;;
8550;SDS011;4313;42.000;21.380;2023-04-24T01:32:45;12.57;;;11.27;;
8550;SDS011;4313;42.000;21.380;2023-04-24T01:35:12;12.10;;;10.90;;
8550;SDS011;4313;42.000;21.380;2023-04-24T01:37:39;12.60;;;11.33;;
8550;SDS011;4313;42.000;21.380;2023-04-24T01:40:08;13.13;;;11.33;;
8550;SDS011;4313;42.000;21.380;2023-04-24T01:42:36;12.73;;;11.53;;
8550;SDS011;4313;42.000;21.380;2023-04-24T01:45:04;12.23;;;10.97;;
8550;SDS011;4313;42.000;21.380;2023-04-24T01:47:34;12.47;;;11.10;;
8550;SDS011;4313;42.000;21.380;2023-04-24T01:50:01;13.07;;;11.77;;
8550;SDS011;4313;42.000;21.380;2023-04-24T01:52:31;12.90;;;11.27;;
8550;SDS011;4313;42.000;21.380;2023-04-24T01:54:59;14.50;;;11.77;;
8550;SDS011;4313;42.000;21.380;2023-04-24T01:57:28;14.17;;;12.40;;
8550;SDS011;4313;42.000;21.380;2023-04-24T01:59:55;14.17;;;12.73;;
8550;SDS011;4313;42.000;21.380;2023-04-24T02:02:23;14.13;;;12.63;;
8550;SDS011;4313;42.000;21.380;2023-04-24T02:04:52;13.60;;;12.20;;
8550;SDS011;4313;42.000;21.380;2023-04-24T02:07:19;13.07;;;11.77;;
8550;SDS011;4313;42.000;21.380;2023-04-24T02:09:47;13.37;;;11.97;;
8550;SDS011;4313;42.000;21.380;2023-04-24T02:12:14;13.83;;;11.90;;
8550;SDS011;4313;42.000;21.380;2023-04-24T02:14:44;14.17;;;12.10;;
8550;SDS011;4313;42.000;21.380;2023-04-24T02:17:11;13.60;;;11.83;;
8550;SDS011;4313;42.000;21.380;2023-04-24T02:19:40;12.53;;;11.23;;
8550;SDS011;4313;42.000;21.380;2023-04-24T02:22:09;14.27;;;11.50;;
8550;SDS011;4313;42.000;21.380;2023-04-24T02:24:54;13.83;;;11.23;;
8550;SDS011;4313;42.000;21.380;2023-04-24T02:27:22;13.17;;;11.87;;
8550;SDS011;4313;42.000;21.380;2023-04-24T02:29:50;13.70;;;11.57;;
8550;SDS011;4313;42.000;21.380;2023-04-24T02:32:19;12.73;;;11.43;;
8550;SDS011;4313;42.000;21.380;2023-04-24T02:34:46;13.13;;;11.73;;
8550;SDS011;4313;42.000;21.380;2023-04-24T02:37:13;13.17;;;11.87;;
8550;SDS011;4313;42.000;21.380;2023-04-24T02:39:41;15.83;;;12.40;;
8550;SDS011;4313;42.000;21.380;2023-04-24T02:42:09;13.67;;;12.07;;
8550;SDS011;4313;42.000;21.380;2023-04-24T02:44:36;12.93;;;11.63;;
8550;SDS011;4313;42.000;21.380;2023-04-24T02:47:05;12.97;;;11.67;;
8550;SDS011;4313;42.000;21.380;2023-04-24T02:49:32;12.30;;;11.10;;
8550;SDS011;4313;42.000;21.380;2023-04-24T02:51:59;13.37;;;11.43;;
8550;SDS011;4313;42.000;21.380;2023-04-24T02:54:27;14.10;;;12.70;;
8550;SDS011;4313;42.000;21.380;2023-04-24T02:56:54;12.90;;;11.60;;
8550;SDS011;4313;42.000;21.380;2023-04-24T02:59:22;13.53;;;12.13;;
8550;SDS011;4313;42.000;21.380;2023-04-24T03:01:49;13.20;;;11.83;;
8550;SDS011;4313;42.000;21.380;2023-04-24T03:04:19;13.43;;;12.13;;
8550;SDS011;4313;42.000;21.380;2023-04-24T03:06:47;13.20;;;11.80;;
8550;SDS011;4313;42.000;21.380;2023-04-24T03:09:18;14.33;;;12.83;;
8550;SDS011;4313;42.000;21.380;2023-04-24T03:11:47;14.13;;;12.73;;
8550;SDS011;4313;42.000;21.380;2023-04-24T03:14:14;14.20;;;12.70;;
8550;SDS011;4313;42.000;21.380;2023-04-24T03:16:42;13.47;;;12.07;;
8550;SDS011;4313;42.000;21.380;2023-04-24T03:19:09;14.27;;;12.77;;
8550;SDS011;4313;42.000;21.380;2023-04-24T03:21:46;15.20;;;13.70;;
8550;SDS011;4313;42.000;21.380;2023-04-24T03:24:13;14.60;;;13.10;;
8550;SDS011;4313;42.000;21.380;2023-04-24T03:26:41;14.90;;;13.30;;
8550;SDS011;4313;42.000;21.380;2023-04-24T03:29:27;15.10;;;12.63;;
8550;SDS011;4313;42.000;21.380;2023-04-24T03:31:54;15.90;;;13.30;;
8550;SDS011;4313;42.000;21.380;2023-04-24T03:34:21;14.33;;;12.90;;
8550;SDS011;4313;42.000;21.380;2023-04-24T03:36:49;14.63;;;13.13;;
8550;SDS011;4313;42.000;21.380;2023-04-24T03:39:19;14.57;;;13.03;;
8550;SDS011;4313;42.000;21.380;2023-04-24T03:41:52;14.43;;;13.03;;
8550;SDS011;4313;42.000;21.380;2023-04-24T03:44:37;15.00;;;13.40;;
8550;SDS011;4313;42.000;21.380;2023-04-24T03:47:04;14.63;;;13.13;;
8550;SDS011;4313;42.000;21.380;2023-04-24T03:49:32;14.93;;;13.33;;
8550;SDS011;4313;42.000;21.380;2023-04-24T03:52:18;15.53;;;14.00;;
8550;SDS011;4313;42.000;21.380;2023-04-24T03:55:04;15.13;;;13.07;;
8550;SDS011;4313;42.000;21.380;2023-04-24T03:57:38;15.73;;;14.00;;
8550;SDS011;4313;42.000;21.380;2023-04-24T04:00:26;16.97;;;14.43;;
8550;SDS011;4313;42.000;21.380;2023-04-24T04:03:11;16.13;;;14.50;;
8550;SDS011;4313;42.000;21.380;2023-04-24T04:05:57;18.27;;;14.70;;
8550;SDS011;4313;42.000;21.380;2023-04-24T04:08:26;15.03;;;13.43;;
8550;SDS011;4313;42.000;21.380;2023-04-24T04:10:53;15.50;;;13.77;;
8550;SDS011;4313;42.000;21.380;2023-04-24T04:13:22;15.13;;;13.53;;
8550;SDS011;4313;42.000;21.380;2023-04-24T04:15:49;15.37;;;13.87;;
8550;SDS011;4313;42.000;21.380;2023-04-24T04:18:16;15.40;;;13.37;;
8550;SDS011;4313;42.000;21.380;2023-04-24T04:20:43;17.83;;;13.70;;
8550;SDS011;4313;42.000;21.380;2023-04-24T04:23:13;14.77;;;13.27;;
8550;SDS011;4313;42.000;21.380;2023-04-24T04:25:57;15.83;;;13.50;;
8550;SDS011;4313;42.000;21.380;2023-04-24T04:28:35;15.50;;;13.93;;
8550;SDS011;4313;42.000;21.380;2023-04-24T04:31:03;14.27;;;12.77;;
8550;SDS011;4313;42.000;21.380;2023-04-24T04:33:30;15.63;;;13.97;;
8550;SDS011;4313;42.000;21.380;2023-04-24T04:35:57;14.53;;;13.00;;
8550;SDS011;4313;42.000;21.380;2023-04-24T04:38:29;14.40;;;12.90;;
8550;SDS011;4313;42.000;21.380;2023-04-24T04:41:06;13.33;;;12.00;;
8550;SDS011;4313;42.000;21.380;2023-04-24T04:43:33;14.50;;;13.00;;
8550;SDS011;4313;42.000;21.380;2023-04-24T04:46:01;14.87;;;11.87;;
8550;SDS011;4313;42.000;21.380;2023-04-24T04:48:46;14.97;;;13.33;;
8550;SDS011;4313;42.000;21.380;2023-04-24T04:51:14;13.80;;;12.40;;
8550;SDS011;4313;42.000;21.380;2023-04-24T04:53:41;19.47;;;13.60;;
8550;SDS011;4313;42.000;21.380;2023-04-24T04:56:09;16.93;;;14.87;;
8550;SDS011;4313;42.000;21.380;2023-04-24T04:58:40;19.00;;;16.80;;
8550;SDS011;4313;42.000;21.380;2023-04-24T05:01:10;20.47;;;18.40;;
8550;SDS011;4313;42.000;21.380;2023-04-24T05:03:44;23.53;;;21.23;;
8550;SDS011;4313;42.000;21.380;2023-04-24T05:06:14;23.60;;;21.27;;
8550;SDS011;4313;42.000;21.380;2023-04-24T05:08:42;19.23;;;17.33;;
8550;SDS011;4313;42.000;21.380;2023-04-24T05:11:31;17.07;;;15.27;;
8550;SDS011;4313;42.000;21.380;2023-04-24T05:14:00;15.02;;;13.52;;
8550;SDS011;4313;42.000;21.380;2023-04-24T05:16:38;15.10;;;13.60;;
8550;SDS011;4313;42.000;21.380;2023-04-24T05:19:07;13.57;;;12.18;;
8550;SDS011;4313;42.000;21.380;2023-04-24T05:21:38;12.38;;;11.18;;
8550;SDS011;4313;42.000;21.380;2023-04-24T05:24:09;13.57;;;11.93;;
8550;SDS011;4313;42.000;21.380;2023-04-24T05:26:57;15.10;;;11.35;;
8550;SDS011;4313;42.000;21.380;2023-04-24T05:29:30;12.23;;;10.98;;
8550;SDS011;4313;42.000;21.380;2023-04-24T05:31:58;12.32;;;11.00;;
8550;SDS011;4313;42.000;21.380;2023-04-24T05:34:27;14.95;;;10.93;;
8550;SDS011;4313;42.000;21.380;2023-04-24T05:36:55;11.75;;;10.48;;
8550;SDS011;4313;42.000;21.380;2023-04-24T05:39:23;12.45;;;11.15;;
8550;SDS011;4313;42.000;21.380;2023-04-24T05:41:50;12.30;;;11.00;;
8550;SDS011;4313;42.000;21.380;2023-04-24T05:44:19;10.20;;;9.13;;
8550;SDS011;4313;42.000;21.380;2023-04-24T05:46:48;11.13;;;9.63;;
8550;SDS011;4313;42.000;21.380;2023-04-24T05:49:16;11.38;;;9.30;;
8550;SDS011;4313;42.000;21.380;2023-04-24T05:51:44;12.23;;;9.85;;
8550;SDS011;4313;42.000;21.380;2023-04-24T05:54:12;12.68;;;9.50;;
8550;SDS011;4313;42.000;21.380;2023-04-24T05:56:40;11.95;;;10.27;;
8550;SDS011;4313;42.000;21.380;2023-04-24T05:59:09;11.50;;;10.27;;
8550;SDS011;4313;42.000;21.380;2023-04-24T06:01:38;10.52;;;9.55;;
8550;SDS011;4313;42.000;21.380;2023-04-24T06:04:13;10.13;;;8.93;;
8550;SDS011;4313;42.000;21.380;2023-04-24T06:06:40;9.73;;;8.82;;
8550;SDS011;4313;42.000;21.380;2023-04-24T06:09:08;11.70;;;10.43;;
8550;SDS011;4313;42.000;21.380;2023-04-24T06:11:35;10.75;;;9.43;;
8550;SDS011;4313;42.000;21.380;2023-04-24T06:14:03;11.75;;;9.90;;
8550;SDS011;4313;42.000;21.380;2023-04-24T06:16:40;11.23;;;10.10;;
8550;SDS011;4313;42.000;21.380;2023-04-24T06:19:18;11.52;;;9.85;;
8550;SDS011;4313;42.000;21.380;2023-04-24T06:21:46;11.40;;;10.23;;
8550;SDS011;4313;42.000;21.380;2023-04-24T06:24:13;12.45;;;9.60;;
8550;SDS011;4313;42.000;21.380;2023-04-24T06:26:41;15.07;;;10.45;;
8550;SDS011;4313;42.000;21.380;2023-04-24T06:29:08;13.77;;;10.50;;
8550;SDS011;4313;42.000;21.380;2023-04-24T06:31:35;10.95;;;9.85;;
8550;SDS011;4313;42.000;21.380;2023-04-24T06:34:03;11.95;;;10.48;;
8550;SDS011;4313;42.000;21.380;2023-04-24T06:36:31;10.68;;;9.57;;
8550;SDS011;4313;42.000;21.380;2023-04-24T06:38:59;13.45;;;9.57;;
8550;SDS011;4313;42.000;21.380;2023-04-24T06:41:27;12.20;;;9.25;;
8550;SDS011;4313;42.000;21.380;2023-04-24T06:43:54;10.80;;;9.27;;
8550;SDS011;4313;42.000;21.380;2023-04-24T06:46:21;10.40;;;9.30;;
8550;SDS011;4313;42.000;21.380;2023-04-24T06:48:51;18.02;;;10.15;;
8550;SDS011;4313;42.000;21.380;2023-04-24T06:51:23;15.00;;;9.82;;
8550;SDS011;4313;42.000;21.380;2023-04-24T06:53:51;11.23;;;9.38;;
8550;SDS011;4313;42.000;21.380;2023-04-24T06:56:18;10.95;;;9.85;;
8550;SDS011;4313;42.000;21.380;2023-04-24T06:58:45;10.07;;;9.00;;
8550;SDS011;4313;42.000;21.380;2023-04-24T07:01:12;11.30;;;9.45;;
8550;SDS011;4313;42.000;21.380;2023-04-24T07:03:39;11.77;;;8.50;;
8550;SDS011;4313;42.000;21.380;2023-04-24T07:06:07;12.07;;;8.40;;
8550;SDS011;4313;42.000;21.380;2023-04-24T07:08:36;10.55;;;8.32;;
8550;SDS011;4313;42.000;21.380;2023-04-24T07:11:03;12.18;;;8.73;;
8550;SDS011;4313;42.000;21.380;2023-04-24T07:13:31;12.30;;;9.43;;
8550;SDS011;4313;42.000;21.380;2023-04-24T07:16:00;10.48;;;9.48;;
8550;SDS011;4313;42.000;21.380;2023-04-24T07:18:27;11.73;;;9.73;;
8550;SDS011;4313;42.000;21.380;2023-04-24T07:20:55;11.27;;;10.13;;
8550;SDS011;4313;42.000;21.380;2023-04-24T07:23:22;12.00;;;10.23;;
8550;SDS011;4313;42.000;21.380;2023-04-24T07:25:51;15.52;;;9.13;;
8550;SDS011;4313;42.000;21.380;2023-04-24T07:28:18;10.30;;;9.30;;
8550;SDS011;4313;42.000;21.380;2023-04-24T07:30:45;9.88;;;8.85;;
8550;SDS011;4313;42.000;21.380;2023-04-24T07:33:12;12.48;;;9.35;;
8550;SDS011;4313;42.000;21.380;2023-04-24T07:35:40;12.75;;;9.90;;
8550;SDS011;4313;42.000;21.380;2023-04-24T07:38:07;9.45;;;8.48;;
8550;SDS011;4313;42.000;21.380;2023-04-24T07:40:34;11.57;;;8.48;;
8550;SDS011;4313;42.000;21.380;2023-04-24T07:43:02;13.07;;;9.23;;
8550;SDS011;4313;42.000;21.380;2023-04-24T07:45:32;10.52;;;9.23;;
8550;SDS011;4313;42.000;21.380;2023-04-24T07:48:04;11.18;;;9.95;;
8550;SDS011;4313;42.000;21.380;2023-04-24T07:50:31;13.48;;;10.38;;
8550;SDS011;4313;42.000;21.380;2023-04-24T07:52:58;13.85;;;12.15;;
8550;SDS011;4313;42.000;21.380;2023-04-24T07:55:28;13.55;;;10.38;;
8550;SDS011;4313;42.000;21.380;2023-04-24T07:57:55;14.45;;;10.70;;
8550;SDS011;4313;42.000;21.380;2023-04-24T08:00:24;11.82;;;10.07;;
8550;SDS011;4313;42.000;21.380;2023-04-24T08:02:51;16.73;;;14.57;;
8550;SDS011;4313;42.000;21.380;2023-04-24T08:05:18;11.15;;;8.68;;
8550;SDS011;4313;42.000;21.380;2023-04-24T08:07:45;14.93;;;9.70;;
8550;SDS011;4313;42.000;21.380;2023-04-24T08:10:14;12.00;;;8.32;;
8550;SDS011;4313;42.000;21.380;2023-04-24T08:12:42;12.90;;;9.18;;
8550;SDS011;4313;42.000;21.380;2023-04-24T08:15:09;12.70;;;9.30;;
8550;SDS011;4313;42.000;21.380;2023-04-24T08:17:40;11.82;;;8.50;;
8550;SDS011;4313;42.000;21.380;2023-04-24T08:20:08;8.35;;;7.45;;
8550;SDS011;4313;42.000;21.380;2023-04-24T08:22:39;10.48;;;7.63;;
8550;SDS011;4313;42.000;21.380;2023-04-24T08:25:06;9.00;;;7.40;;
8550;SDS011;4313;42.000;21.380;2023-04-24T08:27:34;9.95;;;7.20;;
8550;SDS011;4313;42.000;21.380;2023-04-24T08:30:04;8.82;;;7.72;;
8550;SDS011;4313;42.000;21.380;2023-04-24T08:32:32;10.23;;;8.02;;
8550;SDS011;4313;42.000;21.380;2023-04-24T08:35:01;10.80;;;6.90;;
8550;SDS011;4313;42.000;21.380;2023-04-24T08:37:28;11.00;;;7.20;;
8550;SDS011;4313;42.000;21.380;2023-04-24T08:39:55;8.32;;;6.88;;
8550;SDS011;4313;42.000;21.380;2023-04-24T08:42:22;8.13;;;7.10;;
8550;SDS011;4313;42.000;21.380;2023-04-24T08:44:50;8.13;;;6.45;;
8550;SDS011;4313;42.000;21.380;2023-04-24T08:47:17;7.78;;;5.50;;
8550;SDS011;4313;42.000;21.380;2023-04-24T08:49:44;8.23;;;6.03;;
8550;SDS011;4313;42.000;21.380;2023-04-24T08:52:13;8.77;;;6.25;;
8550;SDS011;4313;42.000;21.380;2023-04-24T08:54:40;8.38;;;5.68;;
8550;SDS011;4313;42.000;21.380;2023-04-24T08:57:08;7.03;;;6.10;;
8550;SDS011;4313;42.000;21.380;2023-04-24T08:59:37;9.32;;;5.90;;
8550;SDS011;4313;42.000;21.380;2023-04-24T09:02:04;9.27;;;6.60;;
8550;SDS011;4313;42.000;21.380;2023-04-24T09:04:32;9.27;;;6.40;;
8550;SDS011;4313;42.000;21.380;2023-04-24T09:07:00;9.30;;;6.50;;
8550;SDS011;4313;42.000;21.380;2023-04-24T09:09:30;8.05;;;6.53;;
8550;SDS011;4313;42.000;21.380;2023-04-24T09:11:57;8.90;;;6.40;;
8550;SDS011;4313;42.000;21.380;2023-04-24T09:14:25;11.02;;;6.07;;
8550;SDS011;4313;42.000;21.380;2023-04-24T09:16:53;7.93;;;6.30;;
8550;SDS011;4313;42.000;21.380;2023-04-24T09:19:20;10.23;;;6.63;;
8550;SDS011;4313;42.000;21.380;2023-04-24T09:21:47;9.35;;;6.40;;
8550;SDS011;4313;42.000;21.380;2023-04-24T09:24:16;9.43;;;6.30;;
8550;SDS011;4313;42.000;21.380;2023-04-24T09:26:47;7.53;;;5.38;;
8550;SDS011;4313;42.000;21.380;2023-04-24T09:29:15;8.35;;;6.10;;
8550;SDS011;4313;42.000;21.380;2023-04-24T09:31:43;10.85;;;7.95;;
8550;SDS011;4313;42.000;21.380;2023-04-24T09:34:11;9.68;;;6.70;;
8550;SDS011;4313;42.000;21.380;2023-04-24T09:36:39;6.70;;;5.95;;
8550;SDS011;4313;42.000;21.380;2023-04-24T09:39:08;8.77;;;6.55;;
8550;SDS011;4313;42.000;21.380;2023-04-24T09:41:38;9.20;;;6.35;;
8550;SDS011;4313;42.000;21.380;2023-04-24T09:44:13;9.15;;;5.97;;
8550;SDS011;4313;42.000;21.380;2023-04-24T09:46:41;7.43;;;6.63;;
8550;SDS011;4313;42.000;21.380;2023-04-24T09:49:08;10.10;;;6.43;;
8550;SDS011;4313;42.000;21.380;2023-04-24T09:51:37;8.07;;;6.72;;
8550;SDS011;4313;42.000;21.380;2023-04-24T09:54:11;8.30;;;6.93;;
8550;SDS011;4313;42.000;21.380;2023-04-24T09:56:42;9.95;;;7.00;;
8550;SDS011;4313;42.000;21.380;2023-04-24T09:59:11;7.95;;;6.90;;
8550;SDS011;4313;42.000;21.380;2023-04-24T10:01:39;8.45;;;6.35;;
8550;SDS011;4313;42.000;21.380;2023-04-24T10:04:16;6.43;;;5.80;;
8550;SDS011;4313;42.000;21.380;2023-04-24T10:06:44;9.38;;;6.63;;
8550;SDS011;4313;42.000;21.380;2023-04-24T10:09:11;7.97;;;6.10;;
8550;SDS011;4313;42.000;21.380;2023-04-24T10:11:41;8.30;;;6.43;;
8550;SDS011;4313;42.000;21.380;2023-04-24T10:14:12;9.00;;;5.88;;
8550;SDS011;4313;42.000;21.380;2023-04-24T10:16:39;8.80;;;5.70;;
8550;SDS011;4313;42.000;21.380;2023-04-24T10:19:07;9.50;;;5.65;;
8550;SDS011;4313;42.000;21.380;2023-04-24T10:21:34;7.63;;;5.40;;
8550;SDS011;4313;42.000;21.380;2023-04-24T10:24:03;8.10;;;5.82;;
8550;SDS011;4313;42.000;21.380;2023-04-24T10:26:32;7.20;;;5.35;;
8550;SDS011;4313;42.000;21.380;2023-04-24T10:28:59;7.45;;;5.63;;
8550;SDS011;4313;42.000;21.380;2023-04-24T10:31:31;7.18;;;5.28;;
8550;SDS011;4313;42.000;21.380;2023-04-24T10:33:59;6.47;;;5.07;;
8550;SDS011;4313;42.000;21.380;2023-04-24T10:36:26;7.57;;;5.25;;
8550;SDS011;4313;42.000;21.380;2023-04-24T10:38:54;5.90;;;4.53;;
8550;SDS011;4313;42.000;21.380;2023-04-24T10:41:23;7.80;;;4.70;;
8550;SDS011;4313;42.000;21.380;2023-04-24T10:44:03;5.75;;;5.13;;
8550;SDS011;4313;42.000;21.380;2023-04-24T10:46:32;7.07;;;5.13;;
8550;SDS011;4313;42.000;21.380;2023-04-24T10:49:00;8.90;;;5.13;;
8550;SDS011;4313;42.000;21.380;2023-04-24T10:51:44;5.93;;;4.88;;
8550;SDS011;4313;42.000;21.380;2023-04-24T10:54:23;9.20;;;5.57;;
8550;SDS011;4313;42.000;21.380;2023-04-24T10:57:28;5.13;;;4.60;;
8550;SDS011;4313;42.000;21.380;2023-04-24T11:02:45;7.45;;;5.05;;
8550;SDS011;4313;42.000;21.380;2023-04-24T11:05:15;5.30;;;4.80;;
8550;SDS011;4313;42.000;21.380;2023-04-24T11:10:39;7.65;;;5.18;;
8550;SDS011;4313;42.000;21.380;2023-04-24T11:13:07;7.70;;;5.40;;
8550;SDS011;4313;42.000;21.380;2023-04-24T11:15:35;5.80;;;4.90;;
8550;SDS011;4313;42.000;21.380;2023-04-24T11:18:04;6.57;;;5.00;;
8550;SDS011;4313;42.000;21.380;2023-04-24T11:20:31;7.18;;;5.15;;
8550;SDS011;4313;42.000;21.380;2023-04-24T11:23:03;7.30;;;5.38;;
8550;SDS011;4313;42.000;21.380;2023-04-24T11:25:32;5.75;;;5.13;;
8550;SDS011;4313;42.000;21.380;2023-04-24T11:28:05;10.65;;;5.55;;
8550;SDS011;4313;42.000;21.380;2023-04-24T11:30:33;5.95;;;5.30;;
8550;SDS011;4313;42.000;21.380;2023-04-24T11:33:01;5.32;;;4.80;;
8550;SDS011;4313;42.000;21.380;2023-04-24T11:35:31;5.40;;;4.90;;
8550;SDS011;4313;42.000;21.380;2023-04-24T11:38:03;4.50;;;4.10;;
8550;SDS011;4313;42.000;21.380;2023-04-24T11:40:30;8.52;;;5.43;;
8550;SDS011;4313;42.000;21.380;2023-04-24T11:42:59;5.78;;;5.18;;
8550;SDS011;4313;42.000;21.380;2023-04-24T11:45:27;5.72;;;4.93;;
8550;SDS011;4313;42.000;21.380;2023-04-24T11:47:54;6.90;;;5.40;;
8550;SDS011;4313;42.000;21.380;2023-04-24T11:50:23;6.68;;;4.47;;
8550;SDS011;4313;42.000;21.380;2023-04-24T11:52:54;5.25;;;4.63;;
8550;SDS011;4313;42.000;21.380;2023-04-24T11:55:25;8.30;;;4.80;;
8550;SDS011;4313;42.000;21.380;2023-04-24T11:57:54;7.20;;;5.13;;
8550;SDS011;4313;42.000;21.380;2023-04-24T12:00:23;6.50;;;5.60;;
8550;SDS011;4313;42.000;21.380;2023-04-24T12:03:02;7.78;;;5.80;;
8550;SDS011;4313;42.000;21.380;2023-04-24T12:05:31;6.18;;;4.88;;
8550;SDS011;4313;42.000;21.380;2023-04-24T12:07:59;7.70;;;5.03;;
8550;SDS011;4313;42.000;21.380;2023-04-24T12:10:27;6.22;;;5.20;;
8550;SDS011;4313;42.000;21.380;2023-04-24T12:12:56;5.88;;;5.25;;
8550;SDS011;4313;42.000;21.380;2023-04-24T12:15:24;6.80;;;4.95;;
8550;SDS011;4313;42.000;21.380;2023-04-24T12:17:51;7.82;;;5.05;;
8550;SDS011;4313;42.000;21.380;2023-04-24T12:20:23;6.05;;;5.32;;
8550;SDS011;4313;42.000;21.380;2023-04-24T12:22:51;5.85;;;5.25;;
8550;SDS011;4313;42.000;21.380;2023-04-24T12:25:22;8.07;;;4.97;;
8550;SDS011;4313;42.000;21.380;2023-04-24T12:27:52;8.65;;;5.53;;
8550;SDS011;4313;42.000;21.380;2023-04-24T12:30:20;6.45;;;5.10;;
8550;SDS011;4313;42.000;21.380;2023-04-24T12:32:48;7.07;;;5.30;;
8550;SDS011;4313;42.000;21.380;2023-04-24T12:35:18;6.20;;;5.13;;
8550;SDS011;4313;42.000;21.380;2023-04-24T12:37:48;5.25;;;4.78;;
8550;SDS011;4313;42.000;21.380;2023-04-24T12:40:16;7.65;;;4.70;;
8550;SDS011;4313;42.000;21.380;2023-04-24T12:42:45;7.10;;;5.50;;
8550;SDS011;4313;42.000;21.380;2023-04-24T12:45:14;8.02;;;5.55;;
8550;SDS011;4313;42.000;21.380;2023-04-24T12:47:42;6.55;;;5.80;;
8550;SDS011;4313;42.000;21.380;2023-04-24T12:50:10;8.30;;;5.70;;
8550;SDS011;4313;42.000;21.380;2023-04-24T12:52:38;8.10;;;5.45;;
8550;SDS011;4313;42.000;21.380;2023-04-24T12:55:05;7.28;;;5.10;;
8550;SDS011;4313;42.000;21.380;2023-04-24T12:57:34;7.80;;;5.38;;
8550;SDS011;4313;42.000;21.380;2023-04-24T13:00:05;7.78;;;6.13;;
8550;SDS011;4313;42.000;21.380;2023-04-24T13:02:33;8.18;;;5.22;;
8550;SDS011;4313;42.000;21.380;2023-04-24T13:05:01;7.53;;;4.90;;
8550;SDS011;4313;42.000;21.380;2023-04-24T13:07:29;6.38;;;5.10;;
8550;SDS011;4313;42.000;21.380;2023-04-24T13:09:57;6.35;;;4.78;;
8550;SDS011;4313;42.000;21.380;2023-04-24T13:12:24;6.75;;;4.70;;
8550;SDS011;4313;42.000;21.380;2023-04-24T13:14:51;7.07;;;5.10;;
8550;SDS011;4313;42.000;21.380;2023-04-24T13:17:20;10.30;;;6.82;;
8550;SDS011;4313;42.000;21.380;2023-04-24T13:19:49;7.53;;;5.45;;
8550;SDS011;4313;42.000;21.380;2023-04-24T13:22:17;6.60;;;4.95;;
8550;SDS011;4313;42.000;21.380;2023-04-24T13:24:45;6.35;;;5.20;;
8550;SDS011;4313;42.000;21.380;2023-04-24T13:27:14;8.05;;;5.10;;
8550;SDS011;4313;42.000;21.380;2023-04-24T13:29:41;8.00;;;5.53;;
8550;SDS011;4313;42.000;21.380;2023-04-24T13:32:08;5.97;;;5.22;;
8550;SDS011;4313;42.000;21.380;2023-04-24T13:34:37;8.48;;;5.65;;
8550;SDS011;4313;42.000;21.380;2023-04-24T13:37:04;9.02;;;5.47;;
8550;SDS011;4313;42.000;21.380;2023-04-24T13:39:33;9.35;;;6.20;;
8550;SDS011;4313;42.000;21.380;2023-04-24T13:42:00;7.10;;;5.43;;
8550;SDS011;4313;42.000;21.380;2023-04-24T13:44:27;6.45;;;4.93;;
8550;SDS011;4313;42.000;21.380;2023-04-24T13:46:55;6.13;;;5.53;;
8550;SDS011;4313;42.000;21.380;2023-04-24T13:49:23;5.88;;;4.97;;
8550;SDS011;4313;42.000;21.380;2023-04-24T13:51:52;6.30;;;5.55;;
8550;SDS011;4313;42.000;21.380;2023-04-24T13:54:20;5.85;;;5.18;;
8550;SDS011;4313;42.000;21.380;2023-04-24T13:56:51;6.20;;;5.60;;
8550;SDS011;4313;42.000;21.380;2023-04-24T13:59:22;10.00;;;5.63;;
8550;SDS011;4313;42.000;21.380;2023-04-24T14:01:50;6.78;;;4.60;;
8550;SDS011;4313;42.000;21.380;2023-04-24T14:04:17;7.75;;;5.10;;
8550;SDS011;4313;42.000;21.380;2023-04-24T14:06:44;5.70;;;5.18;;
8550;SDS011;4313;42.000;21.380;2023-04-24T14:09:13;6.82;;;5.35;;
8550;SDS011;4313;42.000;21.380;2023-04-24T14:11:40;6.53;;;5.30;;
8550;SDS011;4313;42.000;21.380;2023-04-24T14:14:07;9.07;;;7.00;;
8550;SDS011;4313;42.000;21.380;2023-04-24T14:16:35;8.52;;;7.03;;
8550;SDS011;4313;42.000;21.380;2023-04-24T14:19:02;13.55;;;11.13;;
8550;SDS011;4313;42.000;21.380;2023-04-24T14:21:30;7.97;;;7.18;;
8550;SDS011;4313;42.000;21.380;2023-04-24T14:23:57;22.80;;;20.35;;
8550;SDS011;4313;42.000;21.380;2023-04-24T14:26:26;14.70;;;11.73;;
8550;SDS011;4313;42.000;21.380;2023-04-24T14:28:53;8.05;;;6.78;;
8550;SDS011;4313;42.000;21.380;2023-04-24T14:31:20;12.65;;;10.88;;
8550;SDS011;4313;42.000;21.380;2023-04-24T14:33:47;13.48;;;9.93;;
8550;SDS011;4313;42.000;21.380;2023-04-24T14:36:14;9.07;;;7.85;;
8550;SDS011;4313;42.000;21.380;2023-04-24T14:38:42;10.73;;;9.07;;
8550;SDS011;4313;42.000;21.380;2023-04-24T14:41:09;8.65;;;7.75;;
8550;SDS011;4313;42.000;21.380;2023-04-24T14:43:38;8.40;;;7.45;;
8550;SDS011;4313;42.000;21.380;2023-04-24T14:46:05;10.20;;;7.82;;
8550;SDS011;4313;42.000;21.380;2023-04-24T14:48:32;9.60;;;6.95;;
8550;SDS011;4313;42.000;21.380;2023-04-24T14:51:00;7.75;;;7.00;;
8550;SDS011;4313;42.000;21.380;2023-04-24T14:53:27;12.80;;;7.72;;
8550;SDS011;4313;42.000;21.380;2023-04-24T14:55:54;15.98;;;11.32;;
8550;SDS011;4313;42.000;21.380;2023-04-24T14:58:21;9.15;;;6.25;;
8550;SDS011;4313;42.000;21.380;2023-04-24T15:00:50;7.43;;;6.55;;
8550;SDS011;4313;42.000;21.380;2023-04-24T15:03:19;7.00;;;5.28;;
8550;SDS011;4313;42.000;21.380;2023-04-24T15:05:48;7.85;;;6.50;;